This is the latest recevied weather packets stored in our database for station/object K1RFS. If no packets are shown the sender has not sent any weather packets the latest 1 day(s).
| Time | Temp. | Humidity | Pressure | Rain* | Wind** | Luminosity | Snow |
|---|---|---|---|---|---|---|---|
| 1778023938 | 16.67° C | 43% | 994.9 hPa | 0 mm | 0 m/s | 344 W/m² | - |
| 1778023635 | 16.11° C | 43% | 995 hPa | 0 mm | 0 m/s | 371 W/m² | - |
| 1778023332 | 17.78° C | 42% | 995.1 hPa | 0 mm | 0.45 m/s, 200° | 377 W/m² | - |
| 1778023029 | 17.22° C | 42% | 994.9 hPa | 0 mm | 0 m/s | 380 W/m² | - |
| 1778022728 | 16.67° C | 43% | 995.1 hPa | 0 mm | 0 m/s | 396 W/m² | - |
| 1778022426 | 16.11° C | 46% | 995.2 hPa | 0 mm | 0.89 m/s, 202° | 445 W/m² | - |
| 1778022122 | 15.56° C | 47% | 995.1 hPa | 0 mm | 0.89 m/s, 183° | 438 W/m² | - |
| 1778021818 | 15.56° C | 48% | 995.1 hPa | 0 mm | 0.45 m/s, 180° | 515 W/m² | - |
| 1778021515 | 15° C | 51% | 995.3 hPa | 0 mm | 0.45 m/s, 175° | 169 W/m² | - |
| 1778021211 | 15° C | 51% | 995.3 hPa | 0 mm | 0 m/s | 184 W/m² | - |
| 1778020909 | 13.89° C | 53% | 995.3 hPa | 0 mm | 0 m/s | 236 W/m² | - |
| 1778020606 | 13.33° C | 57% | 995.4 hPa | 0 mm | 0.45 m/s, 188° | 425 W/m² | - |
| 1778020302 | 12.78° C | 57% | 995.4 hPa | 0 mm | 0 m/s | 248 W/m² | - |
| 1778019998 | 12.22° C | 59% | 995.7 hPa | 0 mm | 0 m/s | 213 W/m² | - |
| 1778019695 | 12.22° C | 59% | 995.6 hPa | 0 mm | 0.45 m/s, 184° | 155 W/m² | - |
| 1778019386 | 12.22° C | 60% | 995.9 hPa | 0 mm | 0 m/s | 124 W/m² | - |
| 1778019083 | 12.22° C | 57% | 995.8 hPa | 0 mm | 0 m/s | 125 W/m² | - |
| 1778018781 | 12.78° C | 59% | 995.9 hPa | 0 mm | 0.45 m/s, 180° | 114 W/m² | - |
| 1778018478 | 13.33° C | 57% | 995.9 hPa | 0 mm | 0 m/s | 95 W/m² | - |
| 1778018176 | 13.33° C | 52% | 995.8 hPa | 0 mm | 0 m/s | 76 W/m² | - |
| 1778017873 | 13.33° C | 47% | 995.9 hPa | 0 mm | 0 m/s | 59 W/m² | - |
| 1778017571 | 13.33° C | 47% | 995.9 hPa | 0 mm | 0.45 m/s, 188° | 66 W/m² | - |
| 1778017268 | 13.89° C | 47% | 995.9 hPa | 0 mm | 0 m/s | 100 W/m² | - |
| 1778016966 | 13.89° C | 47% | 995.8 hPa | 0 mm | 0 m/s | 127 W/m² | - |
| 1778016662 | 13.89° C | 48% | 996 hPa | 0 mm | 0 m/s | 119 W/m² | - |
* Rain latest hour (hover to see other rain measurements)
** Current wind speed in m/s (hover to see current wind gust speed)